sensor_id;sensor_type;location;lat;lon;timestamp;P1;durP1;ratioP1;P2;durP2;ratioP2
5125;SDS011;63008;53.112;8.896;2022-11-14T00:01:27;54.77;;;31.10;;
5125;SDS011;63008;53.112;8.896;2022-11-14T00:03:28;54.80;;;32.20;;
5125;SDS011;63008;53.112;8.896;2022-11-14T00:05:29;53.83;;;30.70;;
5125;SDS011;63008;53.112;8.896;2022-11-14T00:07:30;53.20;;;32.23;;
5125;SDS011;63008;53.112;8.896;2022-11-14T00:09:32;55.00;;;30.37;;
5125;SDS011;63008;53.112;8.896;2022-11-14T00:11:33;59.07;;;32.50;;
5125;SDS011;63008;53.112;8.896;2022-11-14T00:13:34;51.17;;;29.30;;
5125;SDS011;63008;53.112;8.896;2022-11-14T00:15:35;50.10;;;29.70;;
5125;SDS011;63008;53.112;8.896;2022-11-14T00:17:36;48.37;;;31.63;;
5125;SDS011;63008;53.112;8.896;2022-11-14T00:19:37;51.27;;;31.70;;
5125;SDS011;63008;53.112;8.896;2022-11-14T00:21:38;48.13;;;30.87;;
5125;SDS011;63008;53.112;8.896;2022-11-14T00:23:39;48.40;;;31.03;;
5125;SDS011;63008;53.112;8.896;2022-11-14T00:25:40;48.03;;;29.97;;
5125;SDS011;63008;53.112;8.896;2022-11-14T00:27:41;44.87;;;29.33;;
5125;SDS011;63008;53.112;8.896;2022-11-14T00:29:42;51.57;;;30.20;;
5125;SDS011;63008;53.112;8.896;2022-11-14T00:31:43;50.23;;;30.03;;
5125;SDS011;63008;53.112;8.896;2022-11-14T00:33:44;49.17;;;29.57;;
5125;SDS011;63008;53.112;8.896;2022-11-14T00:35:51;46.67;;;30.07;;
5125;SDS011;63008;53.112;8.896;2022-11-14T00:37:56;51.17;;;29.70;;
5125;SDS011;63008;53.112;8.896;2022-11-14T00:39:57;47.27;;;29.20;;
5125;SDS011;63008;53.112;8.896;2022-11-14T00:41:58;46.70;;;30.87;;
5125;SDS011;63008;53.112;8.896;2022-11-14T00:43:59;46.00;;;27.63;;
5125;SDS011;63008;53.112;8.896;2022-11-14T00:46:00;46.53;;;28.77;;
5125;SDS011;63008;53.112;8.896;2022-11-14T00:48:01;49.43;;;31.00;;
5125;SDS011;63008;53.112;8.896;2022-11-14T00:50:02;49.17;;;30.13;;
5125;SDS011;63008;53.112;8.896;2022-11-14T00:52:04;46.20;;;28.73;;
5125;SDS011;63008;53.112;8.896;2022-11-14T00:54:05;47.60;;;28.57;;
5125;SDS011;63008;53.112;8.896;2022-11-14T00:56:06;44.47;;;27.80;;
5125;SDS011;63008;53.112;8.896;2022-11-14T00:58:07;43.53;;;28.00;;
5125;SDS011;63008;53.112;8.896;2022-11-14T01:00:08;46.17;;;29.50;;
5125;SDS011;63008;53.112;8.896;2022-11-14T01:02:12;53.33;;;30.37;;
5125;SDS011;63008;53.112;8.896;2022-11-14T01:04:13;41.90;;;26.10;;
5125;SDS011;63008;53.112;8.896;2022-11-14T01:06:15;45.83;;;28.20;;
5125;SDS011;63008;53.112;8.896;2022-11-14T01:08:17;43.00;;;28.33;;
5125;SDS011;63008;53.112;8.896;2022-11-14T01:10:19;44.30;;;28.53;;
5125;SDS011;63008;53.112;8.896;2022-11-14T01:12:20;41.93;;;27.70;;
5125;SDS011;63008;53.112;8.896;2022-11-14T01:14:21;45.70;;;27.20;;
5125;SDS011;63008;53.112;8.896;2022-11-14T01:16:22;44.87;;;28.97;;
5125;SDS011;63008;53.112;8.896;2022-11-14T01:18:23;47.67;;;29.37;;
5125;SDS011;63008;53.112;8.896;2022-11-14T01:20:27;44.90;;;28.37;;
5125;SDS011;63008;53.112;8.896;2022-11-14T01:22:28;44.00;;;27.20;;
5125;SDS011;63008;53.112;8.896;2022-11-14T01:24:31;52.20;;;29.13;;
5125;SDS011;63008;53.112;8.896;2022-11-14T01:26:33;40.70;;;26.97;;
5125;SDS011;63008;53.112;8.896;2022-11-14T01:28:34;49.07;;;28.90;;
5125;SDS011;63008;53.112;8.896;2022-11-14T01:30:35;47.00;;;29.80;;
5125;SDS011;63008;53.112;8.896;2022-11-14T01:32:37;42.30;;;26.33;;
5125;SDS011;63008;53.112;8.896;2022-11-14T01:34:38;43.53;;;27.33;;
5125;SDS011;63008;53.112;8.896;2022-11-14T01:36:39;44.70;;;27.43;;
5125;SDS011;63008;53.112;8.896;2022-11-14T01:38:40;39.07;;;24.73;;
5125;SDS011;63008;53.112;8.896;2022-11-14T01:40:42;44.20;;;27.50;;
5125;SDS011;63008;53.112;8.896;2022-11-14T01:47:53;43.83;;;25.97;;
5125;SDS011;63008;53.112;8.896;2022-11-14T01:49:58;44.43;;;25.73;;
5125;SDS011;63008;53.112;8.896;2022-11-14T01:52:02;44.60;;;25.70;;
5125;SDS011;63008;53.112;8.896;2022-11-14T01:54:08;41.17;;;25.63;;
5125;SDS011;63008;53.112;8.896;2022-11-14T01:56:14;38.80;;;25.00;;
5125;SDS011;63008;53.112;8.896;2022-11-14T01:58:19;38.77;;;26.90;;
5125;SDS011;63008;53.112;8.896;2022-11-14T02:00:21;44.77;;;27.60;;
5125;SDS011;63008;53.112;8.896;2022-11-14T02:02:24;47.30;;;27.37;;
5125;SDS011;63008;53.112;8.896;2022-11-14T02:04:26;42.80;;;26.27;;
5125;SDS011;63008;53.112;8.896;2022-11-14T02:06:31;42.77;;;27.10;;
5125;SDS011;63008;53.112;8.896;2022-11-14T02:08:32;42.00;;;26.77;;
5125;SDS011;63008;53.112;8.896;2022-11-14T02:10:34;42.90;;;27.37;;
5125;SDS011;63008;53.112;8.896;2022-11-14T02:12:35;43.33;;;25.10;;
5125;SDS011;63008;53.112;8.896;2022-11-14T02:14:37;44.00;;;25.90;;
5125;SDS011;63008;53.112;8.896;2022-11-14T02:16:39;36.20;;;23.93;;
5125;SDS011;63008;53.112;8.896;2022-11-14T02:18:41;42.37;;;25.83;;
5125;SDS011;63008;53.112;8.896;2022-11-14T02:20:42;43.70;;;27.20;;
5125;SDS011;63008;53.112;8.896;2022-11-14T02:22:43;40.63;;;25.47;;
5125;SDS011;63008;53.112;8.896;2022-11-14T02:24:44;39.37;;;24.77;;
5125;SDS011;63008;53.112;8.896;2022-11-14T02:26:45;41.60;;;26.40;;
5125;SDS011;63008;53.112;8.896;2022-11-14T02:28:46;39.90;;;25.53;;
5125;SDS011;63008;53.112;8.896;2022-11-14T02:30:48;37.93;;;25.40;;
5125;SDS011;63008;53.112;8.896;2022-11-14T02:32:49;38.00;;;25.53;;
5125;SDS011;63008;53.112;8.896;2022-11-14T02:34:50;37.53;;;25.97;;
5125;SDS011;63008;53.112;8.896;2022-11-14T02:36:51;42.10;;;26.07;;
5125;SDS011;63008;53.112;8.896;2022-11-14T02:38:52;38.10;;;25.30;;
5125;SDS011;63008;53.112;8.896;2022-11-14T02:40:53;39.70;;;25.80;;
5125;SDS011;63008;53.112;8.896;2022-11-14T02:42:54;40.80;;;26.47;;
5125;SDS011;63008;53.112;8.896;2022-11-14T02:44:55;44.30;;;26.87;;
5125;SDS011;63008;53.112;8.896;2022-11-14T02:46:56;39.53;;;25.53;;
5125;SDS011;63008;53.112;8.896;2022-11-14T02:48:57;37.50;;;23.03;;
5125;SDS011;63008;53.112;8.896;2022-11-14T02:50:58;41.17;;;25.60;;
5125;SDS011;63008;53.112;8.896;2022-11-14T02:52:59;41.03;;;25.90;;
5125;SDS011;63008;53.112;8.896;2022-11-14T02:55:00;42.13;;;26.20;;
5125;SDS011;63008;53.112;8.896;2022-11-14T02:57:00;38.50;;;25.57;;
5125;SDS011;63008;53.112;8.896;2022-11-14T02:59:02;37.33;;;24.50;;
5125;SDS011;63008;53.112;8.896;2022-11-14T03:01:03;43.03;;;25.07;;
5125;SDS011;63008;53.112;8.896;2022-11-14T03:03:04;43.10;;;25.87;;
5125;SDS011;63008;53.112;8.896;2022-11-14T03:05:05;43.07;;;26.00;;
5125;SDS011;63008;53.112;8.896;2022-11-14T03:07:07;37.70;;;24.50;;
5125;SDS011;63008;53.112;8.896;2022-11-14T03:09:08;37.40;;;23.27;;
5125;SDS011;63008;53.112;8.896;2022-11-14T03:11:09;45.40;;;27.70;;
5125;SDS011;63008;53.112;8.896;2022-11-14T03:13:10;37.63;;;23.57;;
5125;SDS011;63008;53.112;8.896;2022-11-14T03:15:11;42.40;;;26.47;;
5125;SDS011;63008;53.112;8.896;2022-11-14T03:17:13;39.53;;;25.40;;
5125;SDS011;63008;53.112;8.896;2022-11-14T03:19:14;46.97;;;26.87;;
5125;SDS011;63008;53.112;8.896;2022-11-14T03:21:16;46.00;;;27.13;;
5125;SDS011;63008;53.112;8.896;2022-11-14T03:23:19;46.30;;;26.37;;
5125;SDS011;63008;53.112;8.896;2022-11-14T03:25:20;44.47;;;25.27;;
5125;SDS011;63008;53.112;8.896;2022-11-14T03:27:21;42.83;;;27.03;;
5125;SDS011;63008;53.112;8.896;2022-11-14T03:29:24;46.37;;;27.70;;
5125;SDS011;63008;53.112;8.896;2022-11-14T03:31:25;40.43;;;25.27;;
5125;SDS011;63008;53.112;8.896;2022-11-14T03:33:27;44.87;;;26.80;;
5125;SDS011;63008;53.112;8.896;2022-11-14T03:35:28;45.00;;;27.73;;
5125;SDS011;63008;53.112;8.896;2022-11-14T03:37:28;44.17;;;27.63;;
5125;SDS011;63008;53.112;8.896;2022-11-14T03:39:29;45.87;;;26.33;;
5125;SDS011;63008;53.112;8.896;2022-11-14T03:41:30;44.47;;;27.10;;
5125;SDS011;63008;53.112;8.896;2022-11-14T03:43:32;44.00;;;26.10;;
5125;SDS011;63008;53.112;8.896;2022-11-14T03:45:36;44.33;;;25.50;;
5125;SDS011;63008;53.112;8.896;2022-11-14T03:47:37;45.63;;;26.00;;
5125;SDS011;63008;53.112;8.896;2022-11-14T03:49:38;42.60;;;27.00;;
5125;SDS011;63008;53.112;8.896;2022-11-14T03:51:40;42.30;;;26.73;;
5125;SDS011;63008;53.112;8.896;2022-11-14T03:53:41;41.73;;;26.30;;
5125;SDS011;63008;53.112;8.896;2022-11-14T03:55:42;43.23;;;25.83;;
5125;SDS011;63008;53.112;8.896;2022-11-14T03:57:43;46.43;;;26.40;;
5125;SDS011;63008;53.112;8.896;2022-11-14T03:59:44;44.47;;;25.93;;
5125;SDS011;63008;53.112;8.896;2022-11-14T04:01:45;43.27;;;26.30;;
5125;SDS011;63008;53.112;8.896;2022-11-14T04:03:46;45.00;;;26.17;;
5125;SDS011;63008;53.112;8.896;2022-11-14T04:05:48;44.70;;;26.57;;
5125;SDS011;63008;53.112;8.896;2022-11-14T04:07:49;41.70;;;25.40;;
5125;SDS011;63008;53.112;8.896;2022-11-14T04:09:50;46.50;;;25.77;;
5125;SDS011;63008;53.112;8.896;2022-11-14T04:11:51;45.80;;;25.87;;
5125;SDS011;63008;53.112;8.896;2022-11-14T04:13:52;45.60;;;26.70;;
5125;SDS011;63008;53.112;8.896;2022-11-14T04:15:54;45.53;;;26.83;;
5125;SDS011;63008;53.112;8.896;2022-11-14T04:17:55;42.27;;;25.00;;
5125;SDS011;63008;53.112;8.896;2022-11-14T04:19:57;43.37;;;26.07;;
5125;SDS011;63008;53.112;8.896;2022-11-14T04:21:58;45.80;;;26.97;;
5125;SDS011;63008;53.112;8.896;2022-11-14T04:23:58;47.83;;;27.70;;
5125;SDS011;63008;53.112;8.896;2022-11-14T04:26:00;41.73;;;25.93;;
5125;SDS011;63008;53.112;8.896;2022-11-14T04:28:01;44.80;;;26.87;;
5125;SDS011;63008;53.112;8.896;2022-11-14T04:30:03;49.93;;;27.77;;
5125;SDS011;63008;53.112;8.896;2022-11-14T04:32:05;49.30;;;27.77;;
5125;SDS011;63008;53.112;8.896;2022-11-14T04:34:06;41.80;;;24.47;;
5125;SDS011;63008;53.112;8.896;2022-11-14T04:36:07;42.97;;;26.50;;
5125;SDS011;63008;53.112;8.896;2022-11-14T04:38:08;44.67;;;26.93;;
5125;SDS011;63008;53.112;8.896;2022-11-14T04:40:10;40.43;;;26.80;;
5125;SDS011;63008;53.112;8.896;2022-11-14T04:42:11;44.07;;;27.00;;
5125;SDS011;63008;53.112;8.896;2022-11-14T04:44:12;44.80;;;27.00;;
5125;SDS011;63008;53.112;8.896;2022-11-14T04:46:13;42.03;;;25.50;;
5125;SDS011;63008;53.112;8.896;2022-11-14T04:48:14;40.70;;;25.20;;
5125;SDS011;63008;53.112;8.896;2022-11-14T04:50:15;46.20;;;25.67;;
5125;SDS011;63008;53.112;8.896;2022-11-14T04:52:16;39.53;;;24.40;;
5125;SDS011;63008;53.112;8.896;2022-11-14T04:54:17;44.33;;;26.50;;
5125;SDS011;63008;53.112;8.896;2022-11-14T04:56:18;41.33;;;25.47;;
5125;SDS011;63008;53.112;8.896;2022-11-14T04:58:22;45.53;;;25.73;;
5125;SDS011;63008;53.112;8.896;2022-11-14T05:00:25;45.30;;;26.90;;
5125;SDS011;63008;53.112;8.896;2022-11-14T05:02:29;43.90;;;25.60;;
5125;SDS011;63008;53.112;8.896;2022-11-14T05:04:31;47.80;;;26.80;;
5125;SDS011;63008;53.112;8.896;2022-11-14T05:06:32;45.03;;;28.40;;
5125;SDS011;63008;53.112;8.896;2022-11-14T05:08:33;50.20;;;28.47;;
5125;SDS011;63008;53.112;8.896;2022-11-14T05:10:34;43.57;;;26.37;;
5125;SDS011;63008;53.112;8.896;2022-11-14T05:12:35;42.97;;;25.07;;
5125;SDS011;63008;53.112;8.896;2022-11-14T05:14:36;44.83;;;26.80;;
5125;SDS011;63008;53.112;8.896;2022-11-14T05:16:37;44.63;;;26.10;;
5125;SDS011;63008;53.112;8.896;2022-11-14T05:18:38;51.73;;;27.67;;
5125;SDS011;63008;53.112;8.896;2022-11-14T05:20:39;45.90;;;27.80;;
5125;SDS011;63008;53.112;8.896;2022-11-14T05:22:40;46.37;;;27.27;;
5125;SDS011;63008;53.112;8.896;2022-11-14T05:24:41;49.73;;;27.97;;
5125;SDS011;63008;53.112;8.896;2022-11-14T05:26:42;50.53;;;27.93;;
5125;SDS011;63008;53.112;8.896;2022-11-14T05:28:43;42.53;;;26.70;;
5125;SDS011;63008;53.112;8.896;2022-11-14T05:30:44;48.77;;;29.40;;
5125;SDS011;63008;53.112;8.896;2022-11-14T05:32:46;42.10;;;26.17;;
5125;SDS011;63008;53.112;8.896;2022-11-14T05:34:47;45.77;;;27.47;;
5125;SDS011;63008;53.112;8.896;2022-11-14T05:36:48;50.63;;;29.17;;
5125;SDS011;63008;53.112;8.896;2022-11-14T05:38:49;47.03;;;27.60;;
5125;SDS011;63008;53.112;8.896;2022-11-14T05:40:50;48.43;;;27.80;;
5125;SDS011;63008;53.112;8.896;2022-11-14T05:42:53;47.57;;;27.60;;
5125;SDS011;63008;53.112;8.896;2022-11-14T05:44:55;47.10;;;26.90;;
5125;SDS011;63008;53.112;8.896;2022-11-14T05:46:56;47.83;;;26.83;;
5125;SDS011;63008;53.112;8.896;2022-11-14T05:48:57;50.90;;;28.37;;
5125;SDS011;63008;53.112;8.896;2022-11-14T05:50:58;54.17;;;27.40;;
5125;SDS011;63008;53.112;8.896;2022-11-14T05:53:01;47.13;;;28.63;;
5125;SDS011;63008;53.112;8.896;2022-11-14T05:55:02;44.90;;;26.13;;
5125;SDS011;63008;53.112;8.896;2022-11-14T05:57:03;47.93;;;29.37;;
5125;SDS011;63008;53.112;8.896;2022-11-14T05:59:04;48.00;;;27.60;;
5125;SDS011;63008;53.112;8.896;2022-11-14T06:03:09;46.90;;;28.87;;
5125;SDS011;63008;53.112;8.896;2022-11-14T06:05:10;49.83;;;27.73;;
5125;SDS011;63008;53.112;8.896;2022-11-14T06:07:11;47.23;;;29.10;;
5125;SDS011;63008;53.112;8.896;2022-11-14T06:09:12;54.27;;;29.30;;
5125;SDS011;63008;53.112;8.896;2022-11-14T06:11:15;48.73;;;28.57;;
5125;SDS011;63008;53.112;8.896;2022-11-14T06:13:17;50.37;;;28.10;;
5125;SDS011;63008;53.112;8.896;2022-11-14T06:15:19;48.17;;;28.03;;
5125;SDS011;63008;53.112;8.896;2022-11-14T06:17:20;51.70;;;27.93;;
5125;SDS011;63008;53.112;8.896;2022-11-14T06:19:21;49.73;;;28.03;;
5125;SDS011;63008;53.112;8.896;2022-11-14T06:21:22;50.57;;;29.60;;
5125;SDS011;63008;53.112;8.896;2022-11-14T06:23:25;50.60;;;27.50;;
5125;SDS011;63008;53.112;8.896;2022-11-14T06:25:26;52.90;;;29.50;;
5125;SDS011;63008;53.112;8.896;2022-11-14T06:27:27;49.10;;;29.00;;
5125;SDS011;63008;53.112;8.896;2022-11-14T06:29:28;49.80;;;28.03;;
5125;SDS011;63008;53.112;8.896;2022-11-14T06:31:29;48.97;;;27.70;;
5125;SDS011;63008;53.112;8.896;2022-11-14T06:33:34;49.90;;;28.87;;
5125;SDS011;63008;53.112;8.896;2022-11-14T06:35:36;44.73;;;26.87;;
5125;SDS011;63008;53.112;8.896;2022-11-14T06:37:37;53.73;;;26.40;;
5125;SDS011;63008;53.112;8.896;2022-11-14T06:39:38;59.93;;;31.03;;
5125;SDS011;63008;53.112;8.896;2022-11-14T06:41:39;58.20;;;30.00;;
5125;SDS011;63008;53.112;8.896;2022-11-14T06:43:40;54.93;;;30.87;;
5125;SDS011;63008;53.112;8.896;2022-11-14T06:45:43;55.43;;;30.00;;
5125;SDS011;63008;53.112;8.896;2022-11-14T06:47:44;57.97;;;29.73;;
5125;SDS011;63008;53.112;8.896;2022-11-14T06:49:45;57.97;;;29.53;;
5125;SDS011;63008;53.112;8.896;2022-11-14T06:51:46;55.07;;;30.00;;
5125;SDS011;63008;53.112;8.896;2022-11-14T06:53:47;47.40;;;27.97;;
5125;SDS011;63008;53.112;8.896;2022-11-14T06:58:15;54.83;;;29.93;;
5125;SDS011;63008;53.112;8.896;2022-11-14T07:00:16;53.40;;;30.00;;
5125;SDS011;63008;53.112;8.896;2022-11-14T07:02:17;56.03;;;30.33;;
5125;SDS011;63008;53.112;8.896;2022-11-14T07:04:18;58.43;;;32.00;;
5125;SDS011;63008;53.112;8.896;2022-11-14T07:06:20;49.87;;;27.73;;
5125;SDS011;63008;53.112;8.896;2022-11-14T07:08:23;49.60;;;28.20;;
5125;SDS011;63008;53.112;8.896;2022-11-14T07:10:24;52.90;;;29.63;;
5125;SDS011;63008;53.112;8.896;2022-11-14T07:12:25;53.70;;;31.60;;
5125;SDS011;63008;53.112;8.896;2022-11-14T07:14:26;59.50;;;31.27;;
5125;SDS011;63008;53.112;8.896;2022-11-14T07:16:32;62.90;;;31.40;;
5125;SDS011;63008;53.112;8.896;2022-11-14T07:18:37;59.17;;;30.60;;
5125;SDS011;63008;53.112;8.896;2022-11-14T07:20:37;59.50;;;30.80;;
5125;SDS011;63008;53.112;8.896;2022-11-14T07:22:38;56.27;;;31.13;;
5125;SDS011;63008;53.112;8.896;2022-11-14T07:24:39;53.33;;;30.03;;
5125;SDS011;63008;53.112;8.896;2022-11-14T07:26:40;53.90;;;30.63;;
5125;SDS011;63008;53.112;8.896;2022-11-14T07:28:42;53.90;;;30.27;;
5125;SDS011;63008;53.112;8.896;2022-11-14T07:30:44;53.93;;;30.63;;
5125;SDS011;63008;53.112;8.896;2022-11-14T07:32:45;59.00;;;32.10;;
5125;SDS011;63008;53.112;8.896;2022-11-14T07:34:46;52.87;;;29.90;;
5125;SDS011;63008;53.112;8.896;2022-11-14T07:36:47;50.43;;;28.97;;
5125;SDS011;63008;53.112;8.896;2022-11-14T07:38:48;51.87;;;29.97;;
5125;SDS011;63008;53.112;8.896;2022-11-14T07:40:55;61.27;;;29.70;;
5125;SDS011;63008;53.112;8.896;2022-11-14T07:42:58;55.23;;;28.77;;
5125;SDS011;63008;53.112;8.896;2022-11-14T07:45:00;57.43;;;29.80;;
5125;SDS011;63008;53.112;8.896;2022-11-14T07:47:01;54.90;;;29.50;;
5125;SDS011;63008;53.112;8.896;2022-11-14T07:49:02;62.27;;;30.00;;
5125;SDS011;63008;53.112;8.896;2022-11-14T07:51:04;70.80;;;32.17;;
5125;SDS011;63008;53.112;8.896;2022-11-14T07:53:07;57.83;;;31.30;;
5125;SDS011;63008;53.112;8.896;2022-11-14T07:55:08;64.10;;;33.43;;
5125;SDS011;63008;53.112;8.896;2022-11-14T07:57:09;60.13;;;31.37;;
5125;SDS011;63008;53.112;8.896;2022-11-14T07:59:10;59.90;;;30.70;;
5125;SDS011;63008;53.112;8.896;2022-11-14T08:01:15;57.27;;;32.47;;
5125;SDS011;63008;53.112;8.896;2022-11-14T08:03:16;65.83;;;31.40;;
5125;SDS011;63008;53.112;8.896;2022-11-14T08:05:17;55.13;;;31.60;;
5125;SDS011;63008;53.112;8.896;2022-11-14T08:07:19;52.13;;;29.40;;
5125;SDS011;63008;53.112;8.896;2022-11-14T08:09:20;51.73;;;29.63;;
5125;SDS011;63008;53.112;8.896;2022-11-14T08:11:22;50.90;;;28.67;;
5125;SDS011;63008;53.112;8.896;2022-11-14T08:13:42;59.30;;;30.33;;
5125;SDS011;63008;53.112;8.896;2022-11-14T08:15:43;52.33;;;29.27;;
5125;SDS011;63008;53.112;8.896;2022-11-14T08:17:44;54.30;;;28.80;;
5125;SDS011;63008;53.112;8.896;2022-11-14T08:19:45;55.90;;;30.77;;
5125;SDS011;63008;53.112;8.896;2022-11-14T08:21:46;55.33;;;29.30;;
5125;SDS011;63008;53.112;8.896;2022-11-14T08:23:47;56.43;;;29.60;;
5125;SDS011;63008;53.112;8.896;2022-11-14T08:25:48;53.90;;;30.17;;
5125;SDS011;63008;53.112;8.896;2022-11-14T08:27:49;57.40;;;29.40;;
5125;SDS011;63008;53.112;8.896;2022-11-14T08:29:50;57.60;;;30.50;;
5125;SDS011;63008;53.112;8.896;2022-11-14T08:31:51;53.93;;;29.40;;
5125;SDS011;63008;53.112;8.896;2022-11-14T08:33:52;49.13;;;28.60;;
5125;SDS011;63008;53.112;8.896;2022-11-14T08:35:53;47.67;;;27.37;;
5125;SDS011;63008;53.112;8.896;2022-11-14T08:37:54;57.17;;;28.80;;
5125;SDS011;63008;53.112;8.896;2022-11-14T08:39:55;52.70;;;28.10;;
5125;SDS011;63008;53.112;8.896;2022-11-14T08:41:56;49.43;;;28.13;;
5125;SDS011;63008;53.112;8.896;2022-11-14T08:43:57;55.93;;;30.67;;
5125;SDS011;63008;53.112;8.896;2022-11-14T08:45:59;55.77;;;30.00;;
5125;SDS011;63008;53.112;8.896;2022-11-14T08:48:00;54.93;;;29.30;;
5125;SDS011;63008;53.112;8.896;2022-11-14T08:50:01;55.07;;;28.87;;
5125;SDS011;63008;53.112;8.896;2022-11-14T08:52:03;55.00;;;30.13;;
5125;SDS011;63008;53.112;8.896;2022-11-14T08:54:04;59.33;;;30.07;;
5125;SDS011;63008;53.112;8.896;2022-11-14T08:56:05;50.23;;;29.20;;
5125;SDS011;63008;53.112;8.896;2022-11-14T08:58:06;48.17;;;29.07;;
5125;SDS011;63008;53.112;8.896;2022-11-14T09:00:07;51.97;;;29.80;;
5125;SDS011;63008;53.112;8.896;2022-11-14T09:02:10;48.00;;;28.93;;
5125;SDS011;63008;53.112;8.896;2022-11-14T09:04:13;50.83;;;27.33;;
5125;SDS011;63008;53.112;8.896;2022-11-14T09:06:14;52.40;;;28.87;;
5125;SDS011;63008;53.112;8.896;2022-11-14T09:08:15;49.83;;;28.37;;
5125;SDS011;63008;53.112;8.896;2022-11-14T09:10:16;52.33;;;29.63;;
5125;SDS011;63008;53.112;8.896;2022-11-14T09:12:17;46.20;;;28.80;;
5125;SDS011;63008;53.112;8.896;2022-11-14T09:14:18;49.90;;;29.27;;
5125;SDS011;63008;53.112;8.896;2022-11-14T09:16:19;48.93;;;27.20;;
5125;SDS011;63008;53.112;8.896;2022-11-14T09:18:20;47.10;;;26.97;;
5125;SDS011;63008;53.112;8.896;2022-11-14T09:20:22;51.93;;;28.90;;
5125;SDS011;63008;53.112;8.896;2022-11-14T09:22:24;50.10;;;29.23;;
5125;SDS011;63008;53.112;8.896;2022-11-14T09:24:25;52.17;;;30.20;;
5125;SDS011;63008;53.112;8.896;2022-11-14T09:26:26;48.47;;;28.10;;
5125;SDS011;63008;53.112;8.896;2022-11-14T09:28:27;50.67;;;29.50;;
5125;SDS011;63008;53.112;8.896;2022-11-14T09:30:28;47.47;;;29.23;;
5125;SDS011;63008;53.112;8.896;2022-11-14T09:32:29;49.87;;;27.87;;
5125;SDS011;63008;53.112;8.896;2022-11-14T09:34:30;54.40;;;28.93;;
5125;SDS011;63008;53.112;8.896;2022-11-14T09:36:31;49.97;;;29.80;;
5125;SDS011;63008;53.112;8.896;2022-11-14T09:38:32;44.40;;;28.60;;
5125;SDS011;63008;53.112;8.896;2022-11-14T09:40:50;46.57;;;28.80;;
5125;SDS011;63008;53.112;8.896;2022-11-14T09:43:04;51.13;;;28.93;;
5125;SDS011;63008;53.112;8.896;2022-11-14T09:45:17;44.83;;;27.33;;
5125;SDS011;63008;53.112;8.896;2022-11-14T09:47:20;51.93;;;28.83;;
5125;SDS011;63008;53.112;8.896;2022-11-14T09:49:34;51.10;;;27.30;;
5125;SDS011;63008;53.112;8.896;2022-11-14T09:51:42;53.17;;;29.07;;
5125;SDS011;63008;53.112;8.896;2022-11-14T09:54:07;51.07;;;29.80;;
5125;SDS011;63008;53.112;8.896;2022-11-14T09:56:20;53.90;;;29.87;;
5125;SDS011;63008;53.112;8.896;2022-11-14T09:58:24;52.40;;;29.30;;
5125;SDS011;63008;53.112;8.896;2022-11-14T10:00:27;49.83;;;29.90;;
5125;SDS011;63008;53.112;8.896;2022-11-14T10:02:39;51.53;;;28.97;;
5125;SDS011;63008;53.112;8.896;2022-11-14T10:04:56;51.03;;;29.60;;
5125;SDS011;63008;53.112;8.896;2022-11-14T10:09:40;51.97;;;29.47;;
5125;SDS011;63008;53.112;8.896;2022-11-14T10:14:03;53.50;;;28.97;;
5125;SDS011;63008;53.112;8.896;2022-11-14T10:18:50;56.10;;;29.13;;
5125;SDS011;63008;53.112;8.896;2022-11-14T10:21:12;54.80;;;29.40;;
5125;SDS011;63008;53.112;8.896;2022-11-14T10:23:59;46.50;;;27.60;;
5125;SDS011;63008;53.112;8.896;2022-11-14T10:26:08;46.20;;;27.63;;
5125;SDS011;63008;53.112;8.896;2022-11-14T10:28:27;54.17;;;28.90;;
5125;SDS011;63008;53.112;8.896;2022-11-14T10:30:34;51.70;;;28.30;;
5125;SDS011;63008;53.112;8.896;2022-11-14T10:32:53;48.03;;;30.07;;
5125;SDS011;63008;53.112;8.896;2022-11-14T10:35:16;55.27;;;28.23;;
5125;SDS011;63008;53.112;8.896;2022-11-14T10:37:22;49.03;;;27.20;;
5125;SDS011;63008;53.112;8.896;2022-11-14T10:41:33;46.13;;;27.17;;
5125;SDS011;63008;53.112;8.896;2022-11-14T10:43:47;46.97;;;26.77;;
5125;SDS011;63008;53.112;8.896;2022-11-14T10:45:54;44.70;;;27.10;;
5125;SDS011;63008;53.112;8.896;2022-11-14T10:48:11;42.70;;;24.80;;
5125;SDS011;63008;53.112;8.896;2022-11-14T10:50:20;45.97;;;25.27;;
5125;SDS011;63008;53.112;8.896;2022-11-14T10:52:37;43.80;;;25.67;;
5125;SDS011;63008;53.112;8.896;2022-11-14T10:57:16;43.27;;;24.67;;
5125;SDS011;63008;53.112;8.896;2022-11-14T10:59:19;42.50;;;24.90;;
5125;SDS011;63008;53.112;8.896;2022-11-14T11:03:56;46.57;;;26.73;;
5125;SDS011;63008;53.112;8.896;2022-11-14T11:05:57;46.97;;;26.83;;
5125;SDS011;63008;53.112;8.896;2022-11-14T11:07:58;46.70;;;26.47;;
5125;SDS011;63008;53.112;8.896;2022-11-14T11:10:19;45.40;;;27.27;;
5125;SDS011;63008;53.112;8.896;2022-11-14T11:12:42;47.70;;;25.13;;
5125;SDS011;63008;53.112;8.896;2022-11-14T11:14:46;44.60;;;26.53;;
5125;SDS011;63008;53.112;8.896;2022-11-14T11:16:48;43.90;;;25.00;;
5125;SDS011;63008;53.112;8.896;2022-11-14T11:19:12;43.17;;;24.33;;
5125;SDS011;63008;53.112;8.896;2022-11-14T11:21:21;42.60;;;27.10;;
5125;SDS011;63008;53.112;8.896;2022-11-14T11:23:25;46.67;;;27.17;;
5125;SDS011;63008;53.112;8.896;2022-11-14T11:25:27;50.43;;;26.83;;
5125;SDS011;63008;53.112;8.896;2022-11-14T11:27:29;45.83;;;27.07;;
5125;SDS011;63008;53.112;8.896;2022-11-14T11:29:30;51.20;;;28.30;;
5125;SDS011;63008;53.112;8.896;2022-11-14T11:34:07;50.13;;;27.47;;
5125;SDS011;63008;53.112;8.896;2022-11-14T11:36:12;50.07;;;27.97;;
5125;SDS011;63008;53.112;8.896;2022-11-14T11:38:17;49.83;;;28.30;;
5125;SDS011;63008;53.112;8.896;2022-11-14T11:40:19;47.50;;;28.00;;
5125;SDS011;63008;53.112;8.896;2022-11-14T11:44:32;50.20;;;28.23;;
5125;SDS011;63008;53.112;8.896;2022-11-14T11:46:43;45.40;;;26.80;;
5125;SDS011;63008;53.112;8.896;2022-11-14T11:48:50;48.47;;;29.90;;
5125;SDS011;63008;53.112;8.896;2022-11-14T11:51:01;48.40;;;27.03;;
5125;SDS011;63008;53.112;8.896;2022-11-14T11:55:32;44.77;;;27.20;;
5125;SDS011;63008;53.112;8.896;2022-11-14T11:57:38;43.03;;;27.10;;
5125;SDS011;63008;53.112;8.896;2022-11-14T11:59:48;47.67;;;28.27;;
5125;SDS011;63008;53.112;8.896;2022-11-14T12:01:53;44.43;;;27.10;;
5125;SDS011;63008;53.112;8.896;2022-11-14T12:03:54;44.80;;;26.47;;
5125;SDS011;63008;53.112;8.896;2022-11-14T12:08:19;44.50;;;24.00;;
5125;SDS011;63008;53.112;8.896;2022-11-14T12:10:27;40.93;;;25.97;;
5125;SDS011;63008;53.112;8.896;2022-11-14T12:12:47;49.00;;;28.90;;
5125;SDS011;63008;53.112;8.896;2022-11-14T12:15:16;43.60;;;27.27;;
5125;SDS011;63008;53.112;8.896;2022-11-14T12:17:53;44.23;;;26.97;;
5125;SDS011;63008;53.112;8.896;2022-11-14T12:20:19;43.27;;;26.50;;
5125;SDS011;63008;53.112;8.896;2022-11-14T12:27:22;45.40;;;26.90;;
5125;SDS011;63008;53.112;8.896;2022-11-14T12:31:48;46.80;;;27.13;;
5125;SDS011;63008;53.112;8.896;2022-11-14T12:33:56;45.90;;;27.70;;
5125;SDS011;63008;53.112;8.896;2022-11-14T12:36:02;41.97;;;25.83;;
5125;SDS011;63008;53.112;8.896;2022-11-14T12:38:12;46.10;;;28.50;;
5125;SDS011;63008;53.112;8.896;2022-11-14T12:40:25;47.77;;;26.30;;
5125;SDS011;63008;53.112;8.896;2022-11-14T12:42:29;39.87;;;24.00;;
5125;SDS011;63008;53.112;8.896;2022-11-14T12:44:32;50.23;;;27.93;;
5125;SDS011;63008;53.112;8.896;2022-11-14T12:53:45;44.93;;;27.30;;
5125;SDS011;63008;53.112;8.896;2022-11-14T13:00:08;40.80;;;27.00;;
5125;SDS011;63008;53.112;8.896;2022-11-14T13:02:16;45.07;;;27.20;;
5125;SDS011;63008;53.112;8.896;2022-11-14T13:06:45;48.07;;;27.83;;